sensor_id;sensor_type;location;lat;lon;timestamp;P1;durP1;ratioP1;P2;durP2;ratioP2
64633;SDS011;51043;52.406;9.690;2022-07-29T00:00:10;6.45;;;1.80;;
64633;SDS011;51043;52.406;9.690;2022-07-29T00:02:39;4.95;;;1.70;;
64633;SDS011;51043;52.406;9.690;2022-07-29T00:05:07;5.00;;;1.45;;
64633;SDS011;51043;52.406;9.690;2022-07-29T00:07:35;6.60;;;1.88;;
64633;SDS011;51043;52.406;9.690;2022-07-29T00:10:03;3.58;;;1.48;;
64633;SDS011;51043;52.406;9.690;2022-07-29T00:12:30;3.50;;;1.38;;
64633;SDS011;51043;52.406;9.690;2022-07-29T00:14:57;6.43;;;1.67;;
64633;SDS011;51043;52.406;9.690;2022-07-29T00:17:24;6.68;;;2.22;;
64633;SDS011;51043;52.406;9.690;2022-07-29T00:19:53;12.40;;;2.00;;
64633;SDS011;51043;52.406;9.690;2022-07-29T00:22:20;10.02;;;1.63;;
64633;SDS011;51043;52.406;9.690;2022-07-29T00:24:47;3.85;;;2.05;;
64633;SDS011;51043;52.406;9.690;2022-07-29T00:27:16;3.72;;;1.73;;
64633;SDS011;51043;52.406;9.690;2022-07-29T00:29:43;8.93;;;1.80;;
64633;SDS011;51043;52.406;9.690;2022-07-29T00:32:10;4.75;;;1.80;;
64633;SDS011;51043;52.406;9.690;2022-07-29T00:34:37;5.25;;;1.90;;
64633;SDS011;51043;52.406;9.690;2022-07-29T00:37:23;4.07;;;1.60;;
64633;SDS011;51043;52.406;9.690;2022-07-29T00:39:50;10.68;;;1.67;;
64633;SDS011;51043;52.406;9.690;2022-07-29T00:42:17;10.68;;;1.85;;
64633;SDS011;51043;52.406;9.690;2022-07-29T00:44:44;7.32;;;1.80;;
64633;SDS011;51043;52.406;9.690;2022-07-29T00:47:11;4.05;;;1.52;;
64633;SDS011;51043;52.406;9.690;2022-07-29T00:49:39;4.78;;;1.50;;
64633;SDS011;51043;52.406;9.690;2022-07-29T00:52:08;4.60;;;1.45;;
64633;SDS011;51043;52.406;9.690;2022-07-29T00:54:35;9.60;;;1.77;;
64633;SDS011;51043;52.406;9.690;2022-07-29T00:57:04;6.10;;;1.40;;
64633;SDS011;51043;52.406;9.690;2022-07-29T00:59:32;4.30;;;1.63;;
64633;SDS011;51043;52.406;9.690;2022-07-29T01:02:01;2.95;;;1.50;;
64633;SDS011;51043;52.406;9.690;2022-07-29T01:04:31;8.52;;;1.98;;
64633;SDS011;51043;52.406;9.690;2022-07-29T01:07:00;8.38;;;1.42;;
64633;SDS011;51043;52.406;9.690;2022-07-29T01:09:28;3.78;;;1.80;;
64633;SDS011;51043;52.406;9.690;2022-07-29T01:11:58;5.00;;;1.88;;
64633;SDS011;51043;52.406;9.690;2022-07-29T01:14:26;5.13;;;1.80;;
64633;SDS011;51043;52.406;9.690;2022-07-29T01:16:56;6.30;;;1.67;;
64633;SDS011;51043;52.406;9.690;2022-07-29T01:22:02;7.43;;;1.58;;
64633;SDS011;51043;52.406;9.690;2022-07-29T01:25:05;6.88;;;1.67;;
64633;SDS011;51043;52.406;9.690;2022-07-29T01:31:05;5.18;;;1.80;;
64633;SDS011;51043;52.406;9.690;2022-07-29T01:33:34;3.63;;;1.80;;
64633;SDS011;51043;52.406;9.690;2022-07-29T01:36:17;5.75;;;1.80;;
64633;SDS011;51043;52.406;9.690;2022-07-29T01:39:49;6.53;;;1.80;;
64633;SDS011;51043;52.406;9.690;2022-07-29T01:44:45;8.52;;;1.90;;
64633;SDS011;51043;52.406;9.690;2022-07-29T01:47:30;2.45;;;1.50;;
64633;SDS011;51043;52.406;9.690;2022-07-29T01:50:01;9.40;;;1.58;;
64633;SDS011;51043;52.406;9.690;2022-07-29T01:52:39;5.93;;;1.77;;
64633;SDS011;51043;52.406;9.690;2022-07-29T01:55:13;4.78;;;1.67;;
64633;SDS011;51043;52.406;9.690;2022-07-29T01:57:43;3.72;;;1.52;;
64633;SDS011;51043;52.406;9.690;2022-07-29T02:00:13;7.07;;;1.70;;
64633;SDS011;51043;52.406;9.690;2022-07-29T02:02:41;5.43;;;1.70;;
64633;SDS011;51043;52.406;9.690;2022-07-29T02:05:11;5.07;;;1.58;;
64633;SDS011;51043;52.406;9.690;2022-07-29T02:07:41;4.97;;;1.45;;
64633;SDS011;51043;52.406;9.690;2022-07-29T02:10:09;6.38;;;1.60;;
64633;SDS011;51043;52.406;9.690;2022-07-29T02:12:38;4.03;;;1.70;;
64633;SDS011;51043;52.406;9.690;2022-07-29T02:15:06;5.90;;;1.52;;
64633;SDS011;51043;52.406;9.690;2022-07-29T02:17:41;9.32;;;2.20;;
64633;SDS011;51043;52.406;9.690;2022-07-29T02:20:12;3.80;;;1.70;;
64633;SDS011;51043;52.406;9.690;2022-07-29T02:22:39;5.27;;;1.60;;
64633;SDS011;51043;52.406;9.690;2022-07-29T02:25:08;3.42;;;1.80;;
64633;SDS011;51043;52.406;9.690;2022-07-29T02:27:36;4.00;;;1.70;;
64633;SDS011;51043;52.406;9.690;2022-07-29T02:30:06;7.67;;;2.10;;
64633;SDS011;51043;52.406;9.690;2022-07-29T02:32:34;6.43;;;1.80;;
64633;SDS011;51043;52.406;9.690;2022-07-29T02:35:03;6.93;;;1.90;;
64633;SDS011;51043;52.406;9.690;2022-07-29T02:37:30;2.60;;;1.37;;
64633;SDS011;51043;52.406;9.690;2022-07-29T02:39:58;5.97;;;1.90;;
64633;SDS011;51043;52.406;9.690;2022-07-29T02:42:26;3.50;;;1.60;;
64633;SDS011;51043;52.406;9.690;2022-07-29T02:44:54;12.00;;;1.80;;
64633;SDS011;51043;52.406;9.690;2022-07-29T02:47:23;7.47;;;1.90;;
64633;SDS011;51043;52.406;9.690;2022-07-29T02:49:57;6.60;;;2.03;;
64633;SDS011;51043;52.406;9.690;2022-07-29T02:52:34;10.10;;;2.00;;
64633;SDS011;51043;52.406;9.690;2022-07-29T02:55:17;6.13;;;1.90;;
64633;SDS011;51043;52.406;9.690;2022-07-29T03:00:30;10.70;;;1.63;;
64633;SDS011;51043;52.406;9.690;2022-07-29T03:03:00;4.45;;;2.00;;
64633;SDS011;51043;52.406;9.690;2022-07-29T03:05:32;8.63;;;1.67;;
64633;SDS011;51043;52.406;9.690;2022-07-29T03:08:02;5.73;;;1.90;;
64633;SDS011;51043;52.406;9.690;2022-07-29T03:10:34;3.95;;;1.63;;
64633;SDS011;51043;52.406;9.690;2022-07-29T03:13:03;6.20;;;2.00;;
64633;SDS011;51043;52.406;9.690;2022-07-29T03:15:31;4.20;;;1.70;;
64633;SDS011;51043;52.406;9.690;2022-07-29T03:17:59;6.85;;;2.00;;
64633;SDS011;51043;52.406;9.690;2022-07-29T03:20:27;4.20;;;2.10;;
64633;SDS011;51043;52.406;9.690;2022-07-29T03:22:53;10.23;;;1.87;;
64633;SDS011;51043;52.406;9.690;2022-07-29T03:25:21;3.87;;;1.90;;
64633;SDS011;51043;52.406;9.690;2022-07-29T03:27:48;8.77;;;1.87;;
64633;SDS011;51043;52.406;9.690;2022-07-29T03:30:15;4.70;;;2.10;;
64633;SDS011;51043;52.406;9.690;2022-07-29T03:32:42;7.13;;;1.77;;
64633;SDS011;51043;52.406;9.690;2022-07-29T03:35:09;3.87;;;1.70;;
64633;SDS011;51043;52.406;9.690;2022-07-29T03:37:36;3.50;;;1.90;;
64633;SDS011;51043;52.406;9.690;2022-07-29T03:40:03;5.83;;;2.00;;
64633;SDS011;51043;52.406;9.690;2022-07-29T03:42:33;4.60;;;1.83;;
64633;SDS011;51043;52.406;9.690;2022-07-29T03:45:07;6.20;;;1.90;;
64633;SDS011;51043;52.406;9.690;2022-07-29T03:47:38;6.40;;;1.80;;
64633;SDS011;51043;52.406;9.690;2022-07-29T03:50:10;5.40;;;1.80;;
64633;SDS011;51043;52.406;9.690;2022-07-29T03:52:40;2.80;;;1.67;;
64633;SDS011;51043;52.406;9.690;2022-07-29T03:55:08;3.72;;;1.75;;
64633;SDS011;51043;52.406;9.690;2022-07-29T03:57:35;6.57;;;2.00;;
64633;SDS011;51043;52.406;9.690;2022-07-29T04:00:06;3.50;;;1.73;;
64633;SDS011;51043;52.406;9.690;2022-07-29T04:02:37;5.67;;;1.87;;
64633;SDS011;51043;52.406;9.690;2022-07-29T04:05:11;4.70;;;1.73;;
64633;SDS011;51043;52.406;9.690;2022-07-29T04:07:39;6.75;;;2.05;;
64633;SDS011;51043;52.406;9.690;2022-07-29T04:10:07;12.05;;;2.00;;
64633;SDS011;51043;52.406;9.690;2022-07-29T04:12:35;7.50;;;1.80;;
64633;SDS011;51043;52.406;9.690;2022-07-29T04:15:05;6.83;;;2.00;;
64633;SDS011;51043;52.406;9.690;2022-07-29T04:17:32;6.20;;;1.90;;
64633;SDS011;51043;52.406;9.690;2022-07-29T04:20:00;6.83;;;1.90;;
64633;SDS011;51043;52.406;9.690;2022-07-29T04:22:26;4.37;;;1.87;;
64633;SDS011;51043;52.406;9.690;2022-07-29T04:24:53;4.97;;;1.80;;
64633;SDS011;51043;52.406;9.690;2022-07-29T04:27:22;7.65;;;2.25;;
64633;SDS011;51043;52.406;9.690;2022-07-29T04:29:49;7.20;;;2.30;;
64633;SDS011;51043;52.406;9.690;2022-07-29T04:32:16;6.37;;;2.40;;
64633;SDS011;51043;52.406;9.690;2022-07-29T04:34:42;5.18;;;2.00;;
64633;SDS011;51043;52.406;9.690;2022-07-29T04:37:11;4.73;;;2.10;;
64633;SDS011;51043;52.406;9.690;2022-07-29T04:39:39;2.60;;;1.60;;
64633;SDS011;51043;52.406;9.690;2022-07-29T04:42:05;3.33;;;1.80;;
64633;SDS011;51043;52.406;9.690;2022-07-29T04:44:32;9.60;;;2.20;;
64633;SDS011;51043;52.406;9.690;2022-07-29T04:46:59;6.57;;;2.07;;
64633;SDS011;51043;52.406;9.690;2022-07-29T04:49:26;6.27;;;2.40;;
64633;SDS011;51043;52.406;9.690;2022-07-29T04:51:53;12.03;;;2.00;;
64633;SDS011;51043;52.406;9.690;2022-07-29T04:54:20;8.87;;;2.20;;
64633;SDS011;51043;52.406;9.690;2022-07-29T04:56:47;5.00;;;1.90;;
64633;SDS011;51043;52.406;9.690;2022-07-29T04:59:13;15.70;;;2.53;;
64633;SDS011;51043;52.406;9.690;2022-07-29T05:01:40;8.33;;;2.10;;
64633;SDS011;51043;52.406;9.690;2022-07-29T05:04:07;14.05;;;2.85;;
64633;SDS011;51043;52.406;9.690;2022-07-29T05:06:34;10.10;;;2.33;;
64633;SDS011;51043;52.406;9.690;2022-07-29T05:09:01;5.30;;;2.30;;
64633;SDS011;51043;52.406;9.690;2022-07-29T05:11:28;8.03;;;2.13;;
64633;SDS011;51043;52.406;9.690;2022-07-29T05:13:55;3.83;;;2.10;;
64633;SDS011;51043;52.406;9.690;2022-07-29T05:16:22;5.90;;;2.08;;
64633;SDS011;51043;52.406;9.690;2022-07-29T05:18:49;7.47;;;2.10;;
64633;SDS011;51043;52.406;9.690;2022-07-29T05:21:16;10.07;;;2.20;;
64633;SDS011;51043;52.406;9.690;2022-07-29T05:23:42;8.57;;;2.00;;
64633;SDS011;51043;52.406;9.690;2022-07-29T05:26:09;5.15;;;2.22;;
64633;SDS011;51043;52.406;9.690;2022-07-29T05:28:36;10.73;;;2.38;;
64633;SDS011;51043;52.406;9.690;2022-07-29T05:31:04;6.65;;;2.13;;
64633;SDS011;51043;52.406;9.690;2022-07-29T05:33:30;14.40;;;2.28;;
64633;SDS011;51043;52.406;9.690;2022-07-29T05:35:58;6.63;;;2.50;;
64633;SDS011;51043;52.406;9.690;2022-07-29T05:38:26;15.25;;;2.40;;
64633;SDS011;51043;52.406;9.690;2022-07-29T05:40:53;9.38;;;2.30;;
64633;SDS011;51043;52.406;9.690;2022-07-29T05:43:26;12.95;;;2.42;;
64633;SDS011;51043;52.406;9.690;2022-07-29T05:45:56;8.00;;;2.70;;
64633;SDS011;51043;52.406;9.690;2022-07-29T05:48:23;4.63;;;2.10;;
64633;SDS011;51043;52.406;9.690;2022-07-29T05:50:50;6.50;;;2.40;;
64633;SDS011;51043;52.406;9.690;2022-07-29T05:53:17;11.82;;;2.30;;
64633;SDS011;51043;52.406;9.690;2022-07-29T05:55:46;6.85;;;2.33;;
64633;SDS011;51043;52.406;9.690;2022-07-29T05:58:13;7.22;;;2.45;;
64633;SDS011;51043;52.406;9.690;2022-07-29T06:00:40;10.20;;;2.35;;
64633;SDS011;51043;52.406;9.690;2022-07-29T06:03:07;6.43;;;2.10;;
64633;SDS011;51043;52.406;9.690;2022-07-29T06:05:34;6.82;;;2.00;;
64633;SDS011;51043;52.406;9.690;2022-07-29T06:08:02;7.57;;;2.05;;
64633;SDS011;51043;52.406;9.690;2022-07-29T06:10:31;5.55;;;2.10;;
64633;SDS011;51043;52.406;9.690;2022-07-29T06:12:59;7.25;;;2.30;;
64633;SDS011;51043;52.406;9.690;2022-07-29T06:15:26;8.15;;;2.25;;
64633;SDS011;51043;52.406;9.690;2022-07-29T06:17:53;18.25;;;2.65;;
64633;SDS011;51043;52.406;9.690;2022-07-29T06:20:22;13.80;;;2.50;;
64633;SDS011;51043;52.406;9.690;2022-07-29T06:22:49;7.28;;;2.42;;
64633;SDS011;51043;52.406;9.690;2022-07-29T06:25:16;7.85;;;2.17;;
64633;SDS011;51043;52.406;9.690;2022-07-29T06:27:42;4.93;;;2.20;;
64633;SDS011;51043;52.406;9.690;2022-07-29T06:30:09;9.57;;;2.10;;
64633;SDS011;51043;52.406;9.690;2022-07-29T06:32:36;7.93;;;2.15;;
64633;SDS011;51043;52.406;9.690;2022-07-29T06:35:06;4.55;;;2.40;;
64633;SDS011;51043;52.406;9.690;2022-07-29T06:37:50;5.88;;;2.30;;
64633;SDS011;51043;52.406;9.690;2022-07-29T06:40:17;10.60;;;2.33;;
64633;SDS011;51043;52.406;9.690;2022-07-29T06:43:03;7.47;;;2.10;;
64633;SDS011;51043;52.406;9.690;2022-07-29T06:45:30;6.47;;;2.30;;
64633;SDS011;51043;52.406;9.690;2022-07-29T06:47:59;10.95;;;2.33;;
64633;SDS011;51043;52.406;9.690;2022-07-29T06:50:29;7.60;;;2.55;;
64633;SDS011;51043;52.406;9.690;2022-07-29T06:52:56;6.65;;;2.42;;
64633;SDS011;51043;52.406;9.690;2022-07-29T06:55:23;5.72;;;2.45;;
64633;SDS011;51043;52.406;9.690;2022-07-29T06:57:50;7.25;;;2.33;;
64633;SDS011;51043;52.406;9.690;2022-07-29T07:00:17;7.72;;;2.40;;
64633;SDS011;51043;52.406;9.690;2022-07-29T07:02:44;5.80;;;2.42;;
64633;SDS011;51043;52.406;9.690;2022-07-29T07:05:11;10.52;;;2.60;;
64633;SDS011;51043;52.406;9.690;2022-07-29T07:07:38;8.02;;;2.80;;
64633;SDS011;51043;52.406;9.690;2022-07-29T07:10:05;15.07;;;2.90;;
64633;SDS011;51043;52.406;9.690;2022-07-29T07:12:32;8.68;;;2.65;;
64633;SDS011;51043;52.406;9.690;2022-07-29T07:14:59;11.25;;;2.67;;
64633;SDS011;51043;52.406;9.690;2022-07-29T07:17:26;10.15;;;2.90;;
64633;SDS011;51043;52.406;9.690;2022-07-29T07:19:53;15.63;;;2.65;;
64633;SDS011;51043;52.406;9.690;2022-07-29T07:22:20;13.30;;;2.58;;
64633;SDS011;51043;52.406;9.690;2022-07-29T07:24:47;10.35;;;2.50;;
64633;SDS011;51043;52.406;9.690;2022-07-29T07:27:13;11.88;;;2.67;;
64633;SDS011;51043;52.406;9.690;2022-07-29T07:29:40;5.53;;;2.10;;
64633;SDS011;51043;52.406;9.690;2022-07-29T07:32:07;7.78;;;2.28;;
64633;SDS011;51043;52.406;9.690;2022-07-29T07:34:34;12.88;;;2.50;;
64633;SDS011;51043;52.406;9.690;2022-07-29T07:37:01;14.07;;;2.10;;
64633;SDS011;51043;52.406;9.690;2022-07-29T07:39:28;9.55;;;2.45;;
64633;SDS011;51043;52.406;9.690;2022-07-29T07:41:55;13.93;;;3.00;;
64633;SDS011;51043;52.406;9.690;2022-07-29T07:44:21;12.10;;;2.28;;
64633;SDS011;51043;52.406;9.690;2022-07-29T07:46:48;7.70;;;2.03;;
64633;SDS011;51043;52.406;9.690;2022-07-29T07:49:15;14.95;;;2.58;;
64633;SDS011;51043;52.406;9.690;2022-07-29T07:51:42;7.65;;;2.13;;
64633;SDS011;51043;52.406;9.690;2022-07-29T07:54:09;6.60;;;2.33;;
64633;SDS011;51043;52.406;9.690;2022-07-29T07:56:36;6.32;;;2.40;;
64633;SDS011;51043;52.406;9.690;2022-07-29T07:59:03;12.50;;;2.50;;
64633;SDS011;51043;52.406;9.690;2022-07-29T08:01:30;7.30;;;2.47;;
64633;SDS011;51043;52.406;9.690;2022-07-29T08:03:57;5.13;;;2.40;;
64633;SDS011;51043;52.406;9.690;2022-07-29T08:06:24;8.00;;;2.30;;
64633;SDS011;51043;52.406;9.690;2022-07-29T08:08:51;7.55;;;2.58;;
64633;SDS011;51043;52.406;9.690;2022-07-29T08:11:21;10.85;;;2.47;;
64633;SDS011;51043;52.406;9.690;2022-07-29T08:13:48;6.35;;;2.80;;
64633;SDS011;51043;52.406;9.690;2022-07-29T08:16:15;8.95;;;2.60;;
64633;SDS011;51043;52.406;9.690;2022-07-29T08:18:42;7.05;;;2.05;;
64633;SDS011;51043;52.406;9.690;2022-07-29T08:21:10;8.77;;;2.40;;
64633;SDS011;51043;52.406;9.690;2022-07-29T08:23:38;11.13;;;2.40;;
64633;SDS011;51043;52.406;9.690;2022-07-29T08:26:08;8.75;;;2.75;;
64633;SDS011;51043;52.406;9.690;2022-07-29T08:28:39;8.20;;;2.67;;
64633;SDS011;51043;52.406;9.690;2022-07-29T08:31:11;9.75;;;2.50;;
64633;SDS011;51043;52.406;9.690;2022-07-29T08:33:39;9.05;;;2.90;;
64633;SDS011;51043;52.406;9.690;2022-07-29T08:36:06;10.70;;;2.70;;
64633;SDS011;51043;52.406;9.690;2022-07-29T08:38:37;9.00;;;2.45;;
64633;SDS011;51043;52.406;9.690;2022-07-29T08:41:04;19.20;;;3.00;;
64633;SDS011;51043;52.406;9.690;2022-07-29T08:43:31;11.18;;;2.90;;
64633;SDS011;51043;52.406;9.690;2022-07-29T08:46:02;12.27;;;2.60;;
64633;SDS011;51043;52.406;9.690;2022-07-29T08:48:29;12.70;;;2.65;;
64633;SDS011;51043;52.406;9.690;2022-07-29T08:50:58;14.75;;;2.67;;
64633;SDS011;51043;52.406;9.690;2022-07-29T08:53:26;12.23;;;2.53;;
64633;SDS011;51043;52.406;9.690;2022-07-29T08:55:55;20.65;;;2.90;;
64633;SDS011;51043;52.406;9.690;2022-07-29T08:58:23;15.18;;;3.20;;
64633;SDS011;51043;52.406;9.690;2022-07-29T09:00:55;15.50;;;2.58;;
64633;SDS011;51043;52.406;9.690;2022-07-29T09:03:23;13.43;;;2.70;;
64633;SDS011;51043;52.406;9.690;2022-07-29T09:05:51;12.85;;;2.90;;
64633;SDS011;51043;52.406;9.690;2022-07-29T09:08:21;12.00;;;2.90;;
64633;SDS011;51043;52.406;9.690;2022-07-29T09:10:48;9.10;;;2.88;;
64633;SDS011;51043;52.406;9.690;2022-07-29T09:13:15;10.50;;;2.55;;
64633;SDS011;51043;52.406;9.690;2022-07-29T09:15:43;4.43;;;2.30;;
64633;SDS011;51043;52.406;9.690;2022-07-29T09:18:11;8.70;;;2.63;;
64633;SDS011;51043;52.406;9.690;2022-07-29T09:20:38;16.80;;;2.45;;
64633;SDS011;51043;52.406;9.690;2022-07-29T09:23:26;8.88;;;2.38;;
64633;SDS011;51043;52.406;9.690;2022-07-29T09:25:53;12.00;;;2.70;;
64633;SDS011;51043;52.406;9.690;2022-07-29T09:28:20;17.20;;;2.55;;
64633;SDS011;51043;52.406;9.690;2022-07-29T09:33:21;9.10;;;2.35;;
64633;SDS011;51043;52.406;9.690;2022-07-29T09:35:59;12.68;;;2.65;;
64633;SDS011;51043;52.406;9.690;2022-07-29T09:38:30;12.73;;;2.45;;
64633;SDS011;51043;52.406;9.690;2022-07-29T09:40:58;17.08;;;2.80;;
64633;SDS011;51043;52.406;9.690;2022-07-29T09:43:27;12.80;;;2.42;;
64633;SDS011;51043;52.406;9.690;2022-07-29T09:45:54;9.88;;;2.50;;
64633;SDS011;51043;52.406;9.690;2022-07-29T09:48:22;7.30;;;2.30;;
64633;SDS011;51043;52.406;9.690;2022-07-29T09:50:50;10.18;;;2.40;;
64633;SDS011;51043;52.406;9.690;2022-07-29T09:53:35;7.65;;;2.78;;
64633;SDS011;51043;52.406;9.690;2022-07-29T09:56:04;13.65;;;2.85;;
64633;SDS011;51043;52.406;9.690;2022-07-29T09:58:31;11.23;;;2.55;;
64633;SDS011;51043;52.406;9.690;2022-07-29T10:00:59;10.30;;;2.70;;
64633;SDS011;51043;52.406;9.690;2022-07-29T10:03:27;7.03;;;2.30;;
64633;SDS011;51043;52.406;9.690;2022-07-29T10:06:10;11.73;;;2.97;;
64633;SDS011;51043;52.406;9.690;2022-07-29T10:08:39;14.15;;;2.70;;
64633;SDS011;51043;52.406;9.690;2022-07-29T10:13:42;15.48;;;2.55;;
64633;SDS011;51043;52.406;9.690;2022-07-29T10:16:13;7.97;;;2.65;;
64633;SDS011;51043;52.406;9.690;2022-07-29T10:18:44;9.35;;;2.42;;
64633;SDS011;51043;52.406;9.690;2022-07-29T10:21:11;16.45;;;2.70;;
64633;SDS011;51043;52.406;9.690;2022-07-29T10:23:39;8.85;;;2.60;;
64633;SDS011;51043;52.406;9.690;2022-07-29T10:26:07;9.52;;;2.30;;
64633;SDS011;51043;52.406;9.690;2022-07-29T10:28:36;6.20;;;2.72;;
64633;SDS011;51043;52.406;9.690;2022-07-29T10:31:05;11.13;;;2.72;;
64633;SDS011;51043;52.406;9.690;2022-07-29T10:39:19;9.32;;;2.35;;
64633;SDS011;51043;52.406;9.690;2022-07-29T10:44:47;8.05;;;2.42;;
64633;SDS011;51043;52.406;9.690;2022-07-29T10:47:21;7.15;;;2.33;;
64633;SDS011;51043;52.406;9.690;2022-07-29T10:49:59;8.27;;;2.67;;
64633;SDS011;51043;52.406;9.690;2022-07-29T10:58:21;14.45;;;3.20;;
64633;SDS011;51043;52.406;9.690;2022-07-29T11:00:52;13.73;;;2.58;;
64633;SDS011;51043;52.406;9.690;2022-07-29T11:06:13;21.13;;;2.72;;
64633;SDS011;51043;52.406;9.690;2022-07-29T11:08:40;9.45;;;2.75;;
64633;SDS011;51043;52.406;9.690;2022-07-29T11:13:47;8.90;;;2.38;;
64633;SDS011;51043;52.406;9.690;2022-07-29T11:16:19;10.60;;;2.78;;
64633;SDS011;51043;52.406;9.690;2022-07-29T11:19:18;11.68;;;2.80;;
64633;SDS011;51043;52.406;9.690;2022-07-29T11:21:45;15.52;;;2.50;;
64633;SDS011;51043;52.406;9.690;2022-07-29T11:24:17;10.20;;;2.70;;
64633;SDS011;51043;52.406;9.690;2022-07-29T11:27:06;9.85;;;3.03;;
64633;SDS011;51043;52.406;9.690;2022-07-29T11:32:21;8.05;;;2.47;;
64633;SDS011;51043;52.406;9.690;2022-07-29T11:35:12;6.28;;;2.30;;
64633;SDS011;51043;52.406;9.690;2022-07-29T11:37:38;7.28;;;2.55;;
64633;SDS011;51043;52.406;9.690;2022-07-29T11:45:04;8.00;;;2.38;;
64633;SDS011;51043;52.406;9.690;2022-07-29T11:50:28;5.93;;;1.90;;
64633;SDS011;51043;52.406;9.690;2022-07-29T11:52:57;7.70;;;2.05;;
64633;SDS011;51043;52.406;9.690;2022-07-29T11:55:25;9.55;;;2.10;;
64633;SDS011;51043;52.406;9.690;2022-07-29T11:57:53;6.65;;;2.45;;
64633;SDS011;51043;52.406;9.690;2022-07-29T12:00:22;9.73;;;2.60;;
64633;SDS011;51043;52.406;9.690;2022-07-29T12:02:55;12.00;;;2.70;;
64633;SDS011;51043;52.406;9.690;2022-07-29T12:05:39;8.73;;;2.60;;
64633;SDS011;51043;52.406;9.690;2022-07-29T12:08:17;7.70;;;2.40;;
64633;SDS011;51043;52.406;9.690;2022-07-29T12:10:46;7.45;;;2.35;;
64633;SDS011;51043;52.406;9.690;2022-07-29T12:13:15;7.40;;;2.88;;
64633;SDS011;51043;52.406;9.690;2022-07-29T12:15:53;8.68;;;2.45;;
64633;SDS011;51043;52.406;9.690;2022-07-29T12:18:22;11.88;;;2.65;;
64633;SDS011;51043;52.406;9.690;2022-07-29T12:20:57;11.30;;;2.53;;
64633;SDS011;51043;52.406;9.690;2022-07-29T12:23:25;10.98;;;2.50;;
64633;SDS011;51043;52.406;9.690;2022-07-29T12:25:52;5.93;;;2.05;;
64633;SDS011;51043;52.406;9.690;2022-07-29T12:28:19;10.07;;;2.38;;
64633;SDS011;51043;52.406;9.690;2022-07-29T12:30:48;9.88;;;2.28;;
64633;SDS011;51043;52.406;9.690;2022-07-29T12:33:22;4.53;;;2.20;;
64633;SDS011;51043;52.406;9.690;2022-07-29T12:35:56;14.48;;;2.33;;
64633;SDS011;51043;52.406;9.690;2022-07-29T12:38:34;5.40;;;2.15;;
64633;SDS011;51043;52.406;9.690;2022-07-29T12:41:02;12.43;;;2.33;;
64633;SDS011;51043;52.406;9.690;2022-07-29T12:43:30;11.60;;;2.58;;
64633;SDS011;51043;52.406;9.690;2022-07-29T12:45:57;9.35;;;2.50;;
64633;SDS011;51043;52.406;9.690;2022-07-29T12:48:37;12.27;;;2.13;;
64633;SDS011;51043;52.406;9.690;2022-07-29T12:51:06;8.98;;;2.65;;
64633;SDS011;51043;52.406;9.690;2022-07-29T12:53:35;7.57;;;2.67;;
64633;SDS011;51043;52.406;9.690;2022-07-29T12:56:03;9.35;;;2.15;;
64633;SDS011;51043;52.406;9.690;2022-07-29T12:58:37;11.32;;;2.40;;
64633;SDS011;51043;52.406;9.690;2022-07-29T13:01:13;9.98;;;2.45;;
64633;SDS011;51043;52.406;9.690;2022-07-29T13:03:52;13.70;;;3.00;;
64633;SDS011;51043;52.406;9.690;2022-07-29T13:07:06;9.45;;;2.78;;
64633;SDS011;51043;52.406;9.690;2022-07-29T13:09:15;13.25;;;2.47;;
64633;SDS011;51043;52.406;9.690;2022-07-29T13:11:46;5.68;;;2.75;;
64633;SDS011;51043;52.406;9.690;2022-07-29T13:14:31;10.93;;;2.35;;
64633;SDS011;51043;52.406;9.690;2022-07-29T13:19:46;14.02;;;2.50;;
64633;SDS011;51043;52.406;9.690;2022-07-29T13:22:18;13.05;;;2.42;;
64633;SDS011;51043;52.406;9.690;2022-07-29T13:27:17;11.50;;;2.38;;
64633;SDS011;51043;52.406;9.690;2022-07-29T13:29:45;8.35;;;2.33;;
64633;SDS011;51043;52.406;9.690;2022-07-29T13:32:13;5.40;;;2.40;;
64633;SDS011;51043;52.406;9.690;2022-07-29T13:34:40;12.23;;;2.42;;
64633;SDS011;51043;52.406;9.690;2022-07-29T13:37:07;10.98;;;2.47;;
64633;SDS011;51043;52.406;9.690;2022-07-29T13:39:37;7.63;;;2.58;;
64633;SDS011;51043;52.406;9.690;2022-07-29T13:42:04;12.75;;;2.30;;
64633;SDS011;51043;52.406;9.690;2022-07-29T13:44:36;13.48;;;2.38;;
64633;SDS011;51043;52.406;9.690;2022-07-29T13:47:03;6.57;;;2.72;;
64633;SDS011;51043;52.406;9.690;2022-07-29T13:49:32;8.52;;;2.60;;
64633;SDS011;51043;52.406;9.690;2022-07-29T13:55:52;15.73;;;2.92;;
64633;SDS011;51043;52.406;9.690;2022-07-29T13:58:32;24.55;;;2.95;;
64633;SDS011;51043;52.406;9.690;2022-07-29T14:01:00;10.10;;;2.90;;
64633;SDS011;51043;52.406;9.690;2022-07-29T14:03:27;11.40;;;3.10;;
64633;SDS011;51043;52.406;9.690;2022-07-29T14:05:54;13.45;;;3.47;;
64633;SDS011;51043;52.406;9.690;2022-07-29T14:08:22;9.75;;;2.78;;
64633;SDS011;51043;52.406;9.690;2022-07-29T14:10:49;14.07;;;2.90;;
64633;SDS011;51043;52.406;9.690;2022-07-29T14:13:16;13.35;;;2.70;;
64633;SDS011;51043;52.406;9.690;2022-07-29T14:15:43;16.67;;;2.88;;
64633;SDS011;51043;52.406;9.690;2022-07-29T14:18:12;14.15;;;2.65;;
64633;SDS011;51043;52.406;9.690;2022-07-29T14:20:39;16.92;;;3.15;;
64633;SDS011;51043;52.406;9.690;2022-07-29T14:23:08;17.40;;;2.75;;
64633;SDS011;51043;52.406;9.690;2022-07-29T14:25:35;10.45;;;2.58;;
64633;SDS011;51043;52.406;9.690;2022-07-29T14:28:02;10.55;;;2.90;;
64633;SDS011;51043;52.406;9.690;2022-07-29T14:30:29;15.52;;;2.72;;
64633;SDS011;51043;52.406;9.690;2022-07-29T14:32:56;10.48;;;2.70;;
64633;SDS011;51043;52.406;9.690;2022-07-29T14:35:23;9.27;;;2.58;;
64633;SDS011;51043;52.406;9.690;2022-07-29T14:37:50;13.52;;;2.78;;
64633;SDS011;51043;52.406;9.690;2022-07-29T14:40:17;14.55;;;2.55;;
64633;SDS011;51043;52.406;9.690;2022-07-29T14:42:44;7.95;;;2.70;;
64633;SDS011;51043;52.406;9.690;2022-07-29T14:45:11;11.80;;;2.60;;
64633;SDS011;51043;52.406;9.690;2022-07-29T14:47:38;10.13;;;2.70;;
64633;SDS011;51043;52.406;9.690;2022-07-29T14:50:05;10.35;;;2.50;;
64633;SDS011;51043;52.406;9.690;2022-07-29T14:52:33;14.60;;;2.85;;
64633;SDS011;51043;52.406;9.690;2022-07-29T14:55:00;9.40;;;2.92;;
64633;SDS011;51043;52.406;9.690;2022-07-29T14:57:27;10.68;;;2.60;;
64633;SDS011;51043;52.406;9.690;2022-07-29T14:59:54;8.50;;;2.40;;
64633;SDS011;51043;52.406;9.690;2022-07-29T15:02:21;16.92;;;2.83;;
64633;SDS011;51043;52.406;9.690;2022-07-29T15:04:49;9.82;;;2.67;;
64633;SDS011;51043;52.406;9.690;2022-07-29T15:07:18;10.68;;;2.78;;
64633;SDS011;51043;52.406;9.690;2022-07-29T15:09:45;12.15;;;2.78;;
64633;SDS011;51043;52.406;9.690;2022-07-29T15:12:12;6.55;;;2.28;;
64633;SDS011;51043;52.406;9.690;2022-07-29T15:14:38;5.90;;;2.40;;
64633;SDS011;51043;52.406;9.690;2022-07-29T15:17:05;9.00;;;2.58;;
64633;SDS011;51043;52.406;9.690;2022-07-29T15:19:34;9.45;;;2.95;;
64633;SDS011;51043;52.406;9.690;2022-07-29T15:22:01;7.57;;;2.50;;
64633;SDS011;51043;52.406;9.690;2022-07-29T15:24:30;9.13;;;2.72;;
64633;SDS011;51043;52.406;9.690;2022-07-29T15:26:57;8.02;;;2.83;;
64633;SDS011;51043;52.406;9.690;2022-07-29T15:29:24;11.05;;;2.67;;
64633;SDS011;51043;52.406;9.690;2022-07-29T15:31:51;16.92;;;2.92;;
64633;SDS011;51043;52.406;9.690;2022-07-29T15:34:18;18.35;;;2.75;;
64633;SDS011;51043;52.406;9.690;2022-07-29T15:36:46;12.93;;;2.70;;
64633;SDS011;51043;52.406;9.690;2022-07-29T15:39:17;17.35;;;2.78;;
64633;SDS011;51043;52.406;9.690;2022-07-29T15:41:45;10.80;;;2.88;;
64633;SDS011;51043;52.406;9.690;2022-07-29T15:44:13;7.93;;;2.35;;
64633;SDS011;51043;52.406;9.690;2022-07-29T15:46:39;7.38;;;2.35;;
64633;SDS011;51043;52.406;9.690;2022-07-29T15:49:25;7.35;;;2.70;;
64633;SDS011;51043;52.406;9.690;2022-07-29T15:51:57;6.68;;;2.50;;